createdAt,value
2017-12-14T00:00:32.995Z,2.60
2017-12-14T00:01:32.986Z,2.60
2017-12-14T00:02:32.981Z,2.50
2017-12-14T00:03:32.973Z,2.60
2017-12-14T00:04:32.975Z,4.10
2017-12-14T00:05:32.966Z,2.50
2017-12-14T00:06:32.966Z,2.60
2017-12-14T00:07:32.954Z,2.30
2017-12-14T00:08:32.948Z,2.80
2017-12-14T00:09:32.946Z,2.80
2017-12-14T00:10:32.942Z,2.20
2017-12-14T00:11:32.942Z,3.00
2017-12-14T00:12:32.933Z,2.30
2017-12-14T00:13:32.933Z,2.80
2017-12-14T00:14:32.925Z,2.30
2017-12-14T00:15:32.924Z,2.10
2017-12-14T00:16:32.915Z,2.40
2017-12-14T00:17:32.909Z,2.20
2017-12-14T00:18:32.903Z,2.10
2017-12-14T00:19:32.903Z,2.20
2017-12-14T00:20:32.899Z,3.50
2017-12-14T00:21:32.900Z,2.10
2017-12-14T00:22:32.892Z,2.40
2017-12-14T00:23:32.976Z,1.90
2017-12-14T00:24:32.882Z,2.10
2017-12-14T00:25:32.876Z,1.80
2017-12-14T00:26:32.869Z,2.40
2017-12-14T00:27:32.868Z,2.20
2017-12-14T00:28:32.861Z,1.80
2017-12-14T00:29:32.876Z,2.00
2017-12-14T00:30:32.849Z,1.90
2017-12-14T00:31:32.861Z,2.00
2017-12-14T00:32:32.850Z,1.90
2017-12-14T00:33:32.837Z,2.10
2017-12-14T00:34:32.835Z,2.00
2017-12-14T00:35:32.824Z,2.50
2017-12-14T00:36:32.824Z,2.20
2017-12-14T00:37:32.821Z,2.90
2017-12-14T00:38:32.812Z,1.60
2017-12-14T00:39:32.812Z,2.20
2017-12-14T00:40:32.803Z,2.20
2017-12-14T00:41:32.800Z,2.60
2017-12-14T00:42:32.796Z,2.10
2017-12-14T00:43:32.791Z,2.10
2017-12-14T00:44:32.792Z,2.50
2017-12-14T00:45:32.782Z,2.60
2017-12-14T00:46:32.776Z,2.00
2017-12-14T00:47:32.776Z,2.80
2017-12-14T00:48:32.763Z,2.10
2017-12-14T00:49:32.763Z,2.20
2017-12-14T00:50:32.756Z,2.40
2017-12-14T00:51:32.753Z,1.70
2017-12-14T00:52:32.748Z,2.20
2017-12-14T00:53:32.740Z,1.70
2017-12-14T00:54:32.739Z,1.70
2017-12-14T00:55:32.734Z,2.10
2017-12-14T00:56:32.731Z,1.90
2017-12-14T00:57:32.721Z,1.60
2017-12-14T00:58:34.192Z,1.50
2017-12-14T00:59:32.712Z,2.10
2017-12-14T01:00:32.713Z,1.40
2017-12-14T01:01:32.706Z,2.60
2017-12-14T01:02:32.699Z,1.70
2017-12-14T01:03:32.692Z,1.40
2017-12-14T01:04:32.691Z,2.00
2017-12-14T01:05:32.682Z,2.80
2017-12-14T01:06:32.677Z,1.50
2017-12-14T01:07:32.674Z,1.60
2017-12-14T01:08:32.672Z,1.70
2017-12-14T01:09:32.668Z,1.60
2017-12-14T01:10:32.666Z,1.40
2017-12-14T01:11:32.651Z,1.70
2017-12-14T01:12:32.651Z,1.90
2017-12-14T01:13:32.652Z,1.70
2017-12-14T01:14:32.646Z,1.70
2017-12-14T01:15:32.632Z,1.50
2017-12-14T01:16:32.632Z,2.70
2017-12-14T01:17:32.634Z,2.50
2017-12-14T01:18:32.632Z,1.20
2017-12-14T01:19:32.617Z,1.80
2017-12-14T01:20:32.608Z,2.30
2017-12-14T01:21:32.609Z,1.10
2017-12-14T01:22:32.610Z,1.30
2017-12-14T01:23:32.594Z,1.30
2017-12-14T01:24:32.594Z,1.30
2017-12-14T01:25:32.590Z,1.50
2017-12-14T01:26:32.583Z,1.70
2017-12-14T01:27:32.582Z,4.90
2017-12-14T01:28:32.571Z,1.20
2017-12-14T01:29:32.569Z,1.60
2017-12-14T01:30:32.569Z,1.90
2017-12-14T01:31:32.556Z,1.70
2017-12-14T01:32:32.554Z,1.80
2017-12-14T01:33:32.548Z,1.60
2017-12-14T01:34:32.545Z,1.70
2017-12-14T01:35:32.543Z,1.90
2017-12-14T01:36:32.536Z,1.30
2017-12-14T01:37:32.529Z,1.40
2017-12-14T01:38:32.538Z,1.90
2017-12-14T01:39:32.582Z,1.10
2017-12-14T01:40:32.515Z,1.30
2017-12-14T01:41:32.506Z,1.50
2017-12-14T01:42:32.506Z,1.30
2017-12-14T01:43:33.193Z,1.40
2017-12-14T01:44:32.498Z,1.20
2017-12-14T01:45:32.489Z,1.70
2017-12-14T01:46:32.490Z,1.40
2017-12-14T01:47:32.479Z,4.00
2017-12-14T01:48:32.474Z,1.10
2017-12-14T01:49:32.472Z,1.00
2017-12-14T01:50:32.473Z,1.30
2017-12-14T01:51:32.457Z,1.50
2017-12-14T01:52:32.451Z,1.10
2017-12-14T01:53:32.450Z,1.30
2017-12-14T01:54:32.445Z,1.20
2017-12-14T01:55:32.438Z,6.50
2017-12-14T01:56:32.430Z,1.30
2017-12-14T01:57:32.431Z,1.20
2017-12-14T01:58:32.425Z,1.20
2017-12-14T01:59:32.417Z,1.20
2017-12-14T02:00:32.416Z,1.30
2017-12-14T02:01:32.406Z,1.30
2017-12-14T02:02:32.408Z,1.40
2017-12-14T02:03:32.401Z,1.10
2017-12-14T02:04:32.392Z,1.00
2017-12-14T02:05:32.392Z,1.20
2017-12-14T02:06:32.385Z,1.30
2017-12-14T02:07:32.377Z,1.40
2017-12-14T02:08:32.375Z,2.20
2017-12-14T02:09:32.372Z,1.00
2017-12-14T02:10:32.373Z,1.10
2017-12-14T02:11:32.361Z,2.00
2017-12-14T02:12:32.361Z,1.20
2017-12-14T02:13:32.398Z,2.70
2017-12-14T02:14:32.345Z,1.20
2017-12-14T02:15:32.335Z,1.50
2017-12-14T02:16:32.331Z,1.40
2017-12-14T02:17:32.330Z,1.30
2017-12-14T02:18:32.322Z,1.30
2017-12-14T02:19:32.325Z,1.40
2017-12-14T02:20:32.313Z,1.40
2017-12-14T02:21:32.305Z,1.60
2017-12-14T02:22:32.302Z,1.30
2017-12-14T02:23:32.295Z,2.40
2017-12-14T02:24:32.296Z,1.60
2017-12-14T02:25:32.287Z,1.60
2017-12-14T02:26:32.279Z,1.40
2017-12-14T02:27:32.274Z,1.50
2017-12-14T02:28:32.268Z,1.30
2017-12-14T02:29:32.264Z,1.70
2017-12-14T02:30:32.265Z,1.50
2017-12-14T02:31:32.251Z,1.80
2017-12-14T02:32:32.249Z,3.00
2017-12-14T02:33:32.244Z,1.60
2017-12-14T02:34:32.241Z,1.90
2017-12-14T02:35:32.233Z,2.10
2017-12-14T02:36:32.231Z,1.50
2017-12-14T02:37:32.224Z,1.30
2017-12-14T02:38:32.218Z,1.40
2017-12-14T02:39:32.213Z,1.50
2017-12-14T02:40:32.208Z,1.40
2017-12-14T02:41:32.208Z,1.50
2017-12-14T02:42:32.196Z,1.60
2017-12-14T02:43:32.246Z,2.30
2017-12-14T02:44:32.186Z,3.50
2017-12-14T02:45:32.195Z,2.90
2017-12-14T02:46:32.173Z,1.80
2017-12-14T02:47:32.168Z,2.30
2017-12-14T02:48:32.160Z,1.70
2017-12-14T02:49:32.163Z,2.40
2017-12-14T02:50:32.153Z,1.70
2017-12-14T02:51:32.150Z,1.80
2017-12-14T02:52:32.141Z,1.80
2017-12-14T02:53:32.138Z,1.40
2017-12-14T02:54:32.137Z,1.40
2017-12-14T02:55:32.125Z,1.40
2017-12-14T02:56:32.165Z,1.60
2017-12-14T02:57:32.122Z,1.60
2017-12-14T02:58:32.118Z,1.50
2017-12-14T02:59:32.103Z,1.60
2017-12-14T03:00:32.103Z,2.50
2017-12-14T03:01:32.095Z,3.40
2017-12-14T03:02:32.092Z,2.30
2017-12-14T03:03:32.084Z,2.20
2017-12-14T03:04:32.078Z,2.60
2017-12-14T03:05:32.069Z,2.20
2017-12-14T03:06:32.071Z,2.70
2017-12-14T03:07:32.064Z,1.70
2017-12-14T03:08:32.055Z,2.10
2017-12-14T03:09:32.056Z,1.70
2017-12-14T03:10:32.047Z,2.40
2017-12-14T03:11:32.039Z,2.30
2017-12-14T03:12:32.034Z,3.70
2017-12-14T03:13:32.037Z,2.00
2017-12-14T03:14:32.024Z,2.40
2017-12-14T03:15:32.027Z,1.80
2017-12-14T03:16:32.012Z,1.90
2017-12-14T03:17:32.013Z,3.90
2017-12-14T03:18:32.001Z,2.80
2017-12-14T03:19:32.000Z,2.60
2017-12-14T03:20:31.993Z,2.60
2017-12-14T03:21:31.988Z,2.20
2017-12-14T03:22:31.983Z,2.50
2017-12-14T03:23:31.979Z,1.80
2017-12-14T03:24:31.978Z,2.00
2017-12-14T03:25:31.967Z,3.60
2017-12-14T03:26:31.965Z,2.00
2017-12-14T03:27:31.956Z,3.60
2017-12-14T03:28:31.952Z,3.20
2017-12-14T03:29:31.950Z,3.40
2017-12-14T03:30:31.947Z,3.80
2017-12-14T03:31:31.944Z,3.20
2017-12-14T03:32:31.931Z,3.60
2017-12-14T03:33:31.927Z,2.30
2017-12-14T03:34:31.925Z,3.00
2017-12-14T03:35:31.917Z,2.80
2017-12-14T03:36:31.912Z,2.90
2017-12-14T03:37:31.916Z,5.60
2017-12-14T03:38:31.905Z,4.70
2017-12-14T03:39:31.896Z,4.10
2017-12-14T03:40:31.894Z,6.10
2017-12-14T03:41:31.886Z,2.80
2017-12-14T03:42:31.888Z,2.90
2017-12-14T03:43:31.877Z,2.70
2017-12-14T03:44:31.875Z,4.50
2017-12-14T03:45:31.868Z,2.70
2017-12-14T03:46:31.864Z,2.60
2017-12-14T03:47:31.854Z,3.60
2017-12-14T03:48:31.857Z,2.70
2017-12-14T03:49:31.854Z,4.10
2017-12-14T03:50:31.845Z,6.70
2017-12-14T03:51:31.837Z,5.10
2017-12-14T03:52:31.833Z,2.50
2017-12-14T03:53:31.828Z,2.00
2017-12-14T03:54:31.824Z,3.40
2017-12-14T03:55:31.820Z,4.70
2017-12-14T03:56:31.816Z,7.00
2017-12-14T03:57:31.807Z,3.40
2017-12-14T03:58:31.809Z,5.00
2017-12-14T03:59:31.800Z,3.70
2017-12-14T04:00:31.798Z,3.60
2017-12-14T04:01:31.793Z,5.90
2017-12-14T04:02:31.785Z,5.70
2017-12-14T04:03:31.785Z,3.90
2017-12-14T04:04:31.776Z,3.40
2017-12-14T04:05:31.771Z,5.40
2017-12-14T04:06:31.766Z,3.30
2017-12-14T04:07:31.758Z,6.10
2017-12-14T04:08:31.755Z,4.30
2017-12-14T04:09:31.752Z,6.10
2017-12-14T04:10:31.747Z,5.20
2017-12-14T04:11:31.751Z,6.40
2017-12-14T04:12:31.747Z,6.90
2017-12-14T04:13:31.734Z,5.40
2017-12-14T04:14:31.729Z,4.30
2017-12-14T04:15:31.732Z,8.40
2017-12-14T04:16:31.718Z,5.60
2017-12-14T04:17:31.712Z,6.30
2017-12-14T04:18:31.714Z,3.70
2017-12-14T04:19:31.706Z,3.40
2017-12-14T04:20:31.698Z,5.00
2017-12-14T04:21:31.697Z,5.90
2017-12-14T04:22:31.687Z,4.40
2017-12-14T04:23:31.685Z,2.50
2017-12-14T04:24:31.689Z,4.30
2017-12-14T04:25:31.675Z,5.50
2017-12-14T04:26:32.232Z,5.10
2017-12-14T04:27:31.671Z,7.00
2017-12-14T04:28:31.658Z,6.20
2017-12-14T04:29:31.658Z,10.70
2017-12-14T04:30:31.655Z,4.20
2017-12-14T04:31:31.654Z,6.10
2017-12-14T04:32:31.643Z,7.20
2017-12-14T04:33:31.641Z,14.20
2017-12-14T04:34:31.642Z,11.20
2017-12-14T04:35:31.633Z,9.80
2017-12-14T04:36:31.626Z,9.20
2017-12-14T04:37:31.618Z,10.80
2017-12-14T04:38:31.620Z,8.30
2017-12-14T04:39:31.610Z,4.90
2017-12-14T04:40:31.607Z,6.30
2017-12-14T04:41:31.600Z,4.90
2017-12-14T04:42:31.608Z,7.50
2017-12-14T04:43:31.598Z,6.10
2017-12-14T04:44:31.647Z,6.50
2017-12-14T04:45:31.586Z,9.30
2017-12-14T04:46:31.579Z,7.60
2017-12-14T04:47:31.572Z,10.50
2017-12-14T04:48:31.569Z,8.90
2017-12-14T04:49:31.570Z,7.60
2017-12-14T04:50:31.564Z,10.20
2017-12-14T04:51:31.557Z,3.70
2017-12-14T04:52:31.550Z,5.00
2017-12-14T04:53:31.546Z,9.40
2017-12-14T04:54:31.543Z,11.20
2017-12-14T04:55:31.543Z,7.20
2017-12-14T04:56:31.535Z,7.80
2017-12-14T04:57:31.526Z,6.90
2017-12-14T04:58:31.526Z,8.20
2017-12-14T04:59:31.527Z,12.00
2017-12-14T05:00:31.514Z,6.20
2017-12-14T05:01:31.524Z,3.60
2017-12-14T05:02:31.510Z,9.80
2017-12-14T05:03:31.506Z,15.90
2017-12-14T05:04:31.500Z,12.10
2017-12-14T05:05:31.494Z,9.30
2017-12-14T05:06:31.489Z,5.50
2017-12-14T05:07:31.487Z,6.30
2017-12-14T05:08:31.488Z,9.20
2017-12-14T05:09:31.476Z,9.80
2017-12-14T05:10:31.474Z,8.30
2017-12-14T05:11:31.466Z,13.70
2017-12-14T05:12:31.462Z,11.20
2017-12-14T05:13:31.461Z,11.00
2017-12-14T05:14:31.454Z,8.40
2017-12-14T05:15:31.452Z,12.20
2017-12-14T05:16:31.442Z,8.30
2017-12-14T05:17:31.439Z,13.20
2017-12-14T05:18:31.437Z,8.10
2017-12-14T05:19:31.432Z,9.40
2017-12-14T05:20:31.429Z,11.30
2017-12-14T05:21:31.426Z,9.80
2017-12-14T05:22:31.420Z,14.10
2017-12-14T05:23:31.412Z,12.20
2017-12-14T05:24:31.419Z,7.90
2017-12-14T05:25:31.410Z,11.50
2017-12-14T05:26:31.397Z,10.00
2017-12-14T05:27:31.404Z,11.30
2017-12-14T05:28:31.396Z,12.70
2017-12-14T05:29:31.384Z,12.80
2017-12-14T05:30:31.381Z,9.00
2017-12-14T05:31:31.379Z,13.00
2017-12-14T05:32:31.379Z,10.10
2017-12-14T05:33:31.373Z,15.00
2017-12-14T05:34:31.364Z,13.50
2017-12-14T05:35:31.358Z,10.30
2017-12-14T05:36:31.362Z,11.80
2017-12-14T05:37:31.346Z,14.70
2017-12-14T05:38:31.344Z,9.70
2017-12-14T05:39:31.337Z,12.20
2017-12-14T05:40:31.335Z,8.40
2017-12-14T05:41:31.334Z,10.50
2017-12-14T05:42:31.326Z,15.20
2017-12-14T05:43:31.318Z,12.10
2017-12-14T05:44:31.321Z,12.30
2017-12-14T05:45:31.321Z,9.20
2017-12-14T05:46:31.305Z,13.00
2017-12-14T05:47:31.305Z,17.20
2017-12-14T05:48:31.300Z,37.90
2017-12-14T05:49:31.298Z,32.20
2017-12-14T05:50:31.292Z,12.30
2017-12-14T05:51:31.289Z,26.80
2017-12-14T05:52:31.280Z,16.80
2017-12-14T05:53:31.276Z,15.60
2017-12-14T05:54:31.291Z,14.70
2017-12-14T05:55:31.264Z,13.00
2017-12-14T05:56:31.266Z,13.70
2017-12-14T05:57:31.257Z,23.10
2017-12-14T05:58:31.252Z,14.60
2017-12-14T05:59:31.250Z,22.70
2017-12-14T06:00:31.252Z,11.30
2017-12-14T06:01:31.235Z,13.40
2017-12-14T06:02:31.235Z,17.30
2017-12-14T06:03:31.227Z,16.70
2017-12-14T06:04:31.226Z,14.60
2017-12-14T06:05:31.219Z,19.90
2017-12-14T06:06:31.219Z,18.10
2017-12-14T06:07:31.211Z,22.00
2017-12-14T06:08:31.214Z,22.40
2017-12-14T06:09:31.200Z,16.80
2017-12-14T06:10:31.198Z,13.50
2017-12-14T06:11:31.194Z,19.90
2017-12-14T06:12:31.185Z,16.80
2017-12-14T06:13:31.180Z,15.40
2017-12-14T06:14:31.180Z,15.70
2017-12-14T06:15:31.170Z,20.20
2017-12-14T06:16:31.170Z,15.00
2017-12-14T06:17:31.170Z,14.10
2017-12-14T06:18:31.161Z,19.10
2017-12-14T06:19:31.191Z,25.10
2017-12-14T06:20:31.153Z,17.20
2017-12-14T06:21:31.145Z,13.80
2017-12-14T06:22:31.142Z,14.50
2017-12-14T06:23:31.134Z,22.90
2017-12-14T06:24:31.138Z,11.20
2017-12-14T06:25:31.126Z,15.70
2017-12-14T06:26:31.133Z,11.80
2017-12-14T06:27:31.122Z,14.50
2017-12-14T06:28:31.122Z,15.90
2017-12-14T06:29:31.115Z,13.30
2017-12-14T06:30:31.112Z,17.60
2017-12-14T06:31:31.099Z,11.40
2017-12-14T06:32:31.099Z,13.40
2017-12-14T06:33:31.090Z,13.60
2017-12-14T06:34:31.086Z,14.30
2017-12-14T06:35:31.083Z,9.30
2017-12-14T06:36:31.077Z,15.30
2017-12-14T06:37:31.074Z,19.10
2017-12-14T06:38:31.067Z,126.30
2017-12-14T06:39:31.063Z,121.80
2017-12-14T06:40:31.060Z,59.40
2017-12-14T06:41:31.051Z,19.20
2017-12-14T06:42:31.050Z,23.30
2017-12-14T06:43:31.044Z,14.40
2017-12-14T06:44:31.045Z,12.10
2017-12-14T06:45:31.041Z,15.30
2017-12-14T06:46:31.030Z,12.90
2017-12-14T06:47:31.029Z,14.50
2017-12-14T06:50:03.133Z,13.50
2017-12-14T06:51:03.140Z,9.00
2017-12-14T06:52:03.080Z,13.80
2017-12-14T06:53:03.076Z,9.40
2017-12-14T06:54:03.070Z,12.20
2017-12-14T06:55:03.068Z,12.30
2017-12-14T06:56:03.063Z,15.90
2017-12-14T06:57:03.060Z,19.20
2017-12-14T06:58:03.057Z,12.30
2017-12-14T06:59:03.064Z,12.60
2017-12-14T07:00:03.050Z,17.40
2017-12-14T07:01:03.041Z,13.40
2017-12-14T07:02:03.042Z,15.40
2017-12-14T07:03:03.032Z,13.60
2017-12-14T07:04:03.034Z,15.30
2017-12-14T07:05:03.024Z,16.10
2017-12-14T07:06:03.021Z,16.50
2017-12-14T07:07:03.115Z,11.20
2017-12-14T07:08:03.021Z,19.40
2017-12-14T07:09:03.039Z,17.30
2017-12-14T07:10:03.011Z,16.00
2017-12-14T07:11:03.020Z,13.30
2017-12-14T07:12:02.991Z,11.60
2017-12-14T07:13:02.988Z,17.50
2017-12-14T07:14:02.985Z,20.40
2017-12-14T07:15:02.978Z,14.90
2017-12-14T07:16:02.973Z,18.20
2017-12-14T07:17:02.971Z,13.90
2017-12-14T07:18:02.973Z,25.20
2017-12-14T07:19:02.963Z,15.00
2017-12-14T07:20:02.956Z,17.40
2017-12-14T07:21:02.963Z,11.20
2017-12-14T07:22:02.950Z,13.10
2017-12-14T07:23:02.947Z,26.00
2017-12-14T07:24:02.939Z,12.30
2017-12-14T07:25:02.942Z,11.70
2017-12-14T07:26:02.940Z,13.40
2017-12-14T07:27:02.931Z,15.10
2017-12-14T07:28:02.930Z,16.30
2017-12-14T07:29:02.925Z,17.50
2017-12-14T07:30:02.929Z,12.10
2017-12-14T07:31:02.914Z,16.00
2017-12-14T07:32:02.903Z,12.40
2017-12-14T07:33:02.903Z,10.60
2017-12-14T07:34:02.893Z,18.50
2017-12-14T07:35:02.896Z,12.30
2017-12-14T07:36:02.892Z,11.80
2017-12-14T07:37:02.890Z,15.30
2017-12-14T07:38:02.880Z,13.80
2017-12-14T07:39:02.873Z,15.20
2017-12-14T07:40:02.880Z,14.90
2017-12-14T07:41:02.874Z,17.70
2017-12-14T07:42:02.963Z,14.80
2017-12-14T07:43:02.859Z,18.30
2017-12-14T07:44:02.881Z,16.10
2017-12-14T07:45:02.850Z,12.60
2017-12-14T07:46:02.848Z,20.80
2017-12-14T07:47:02.843Z,12.30
2017-12-14T07:48:02.846Z,12.10
2017-12-14T07:49:02.842Z,14.10
2017-12-14T07:50:02.843Z,14.50
2017-12-14T07:52:35.021Z,21.80
2017-12-14T07:53:34.894Z,15.90
2017-12-14T07:54:34.885Z,15.10
2017-12-14T07:55:34.881Z,12.30
2017-12-14T07:56:34.879Z,14.80
2017-12-14T07:57:34.868Z,16.90
2017-12-14T07:58:34.865Z,16.60
2017-12-14T07:59:34.861Z,11.50
2017-12-14T08:00:34.865Z,22.30
2017-12-14T08:01:34.856Z,18.90
2017-12-14T08:02:34.849Z,14.50
2017-12-14T08:03:34.844Z,17.80
2017-12-14T08:04:34.838Z,20.00
2017-12-14T08:05:34.833Z,20.00
2017-12-14T08:06:34.829Z,19.00
2017-12-14T08:07:34.824Z,16.20
2017-12-14T08:08:34.824Z,17.80
2017-12-14T08:09:34.816Z,19.20
2017-12-14T08:10:34.812Z,13.30
2017-12-14T08:11:34.808Z,13.60
2017-12-14T08:12:34.804Z,13.60
2017-12-14T08:13:34.796Z,19.60
2017-12-14T08:14:34.796Z,18.80
2017-12-14T08:15:34.796Z,15.00
2017-12-14T08:16:34.785Z,15.10
2017-12-14T08:17:34.787Z,26.90
2017-12-14T08:18:34.786Z,17.00
2017-12-14T08:19:34.774Z,11.00
2017-12-14T08:20:34.767Z,17.60
2017-12-14T08:21:34.771Z,25.70
2017-12-14T08:22:34.764Z,16.10
2017-12-14T08:23:34.755Z,16.20
2017-12-14T08:24:34.755Z,16.20
2017-12-14T08:25:34.754Z,14.60
2017-12-14T08:26:34.741Z,17.70
2017-12-14T08:27:34.812Z,12.80
2017-12-14T08:28:34.737Z,17.40
2017-12-14T08:29:34.733Z,16.00
2017-12-14T08:30:34.724Z,13.00
2017-12-14T08:31:34.725Z,16.80
2017-12-14T08:32:34.719Z,20.90
2017-12-14T08:33:34.711Z,15.10
2017-12-14T08:34:34.714Z,13.30
2017-12-14T08:35:34.715Z,12.20
2017-12-14T08:36:34.705Z,12.00
2017-12-14T08:37:34.691Z,18.10
2017-12-14T08:38:34.695Z,20.50
2017-12-14T08:39:34.688Z,12.50
2017-12-14T08:40:34.689Z,12.50
2017-12-14T08:41:34.678Z,12.50
2017-12-14T08:42:34.684Z,17.10
2017-12-14T08:43:34.674Z,14.70
2017-12-14T08:44:34.678Z,14.20
2017-12-14T08:45:34.670Z,14.40
2017-12-14T08:46:34.667Z,14.20
2017-12-14T08:47:34.653Z,16.10
2017-12-14T08:48:34.650Z,17.20
2017-12-14T08:49:34.647Z,14.70
2017-12-14T08:50:34.643Z,18.30
2017-12-14T08:51:34.643Z,16.70
2017-12-14T08:52:34.637Z,21.80
2017-12-14T08:53:34.638Z,12.70
2017-12-14T08:54:34.626Z,17.80
2017-12-14T08:55:34.623Z,19.80
2017-12-14T08:56:34.625Z,19.10
2017-12-14T08:57:34.619Z,18.40
2017-12-14T08:58:34.618Z,12.40
2017-12-14T08:59:34.606Z,13.50
2017-12-14T09:00:34.707Z,12.60
2017-12-14T09:01:34.598Z,17.60
2017-12-14T09:02:34.596Z,13.90
2017-12-14T09:03:34.593Z,13.90
2017-12-14T09:04:34.589Z,20.80
2017-12-14T09:05:34.585Z,14.60
2017-12-14T09:06:34.588Z,12.60
2017-12-14T09:07:34.577Z,18.50
2017-12-14T09:08:34.569Z,16.60
2017-12-14T09:09:34.564Z,18.70
2017-12-14T09:10:34.555Z,15.20
2017-12-14T09:11:34.556Z,18.20
2017-12-14T09:12:34.553Z,17.40
2017-12-14T09:13:34.551Z,16.50
2017-12-14T09:14:34.582Z,19.90
2017-12-14T09:15:34.538Z,21.70
2017-12-14T09:16:34.535Z,15.00
2017-12-14T09:17:34.529Z,14.10
2017-12-14T09:18:34.522Z,15.80
2017-12-14T09:19:34.519Z,16.30
2017-12-14T09:20:34.523Z,13.70
2017-12-14T09:21:34.515Z,16.40
2017-12-14T09:22:34.507Z,26.80
2017-12-14T09:23:34.508Z,17.80
2017-12-14T09:24:34.503Z,10.80
2017-12-14T09:25:34.502Z,13.70
2017-12-14T09:26:34.500Z,16.20
2017-12-14T09:27:34.492Z,14.10
2017-12-14T09:28:34.487Z,17.40
2017-12-14T09:29:34.485Z,25.20
2017-12-14T09:30:34.476Z,15.60
2017-12-14T21:31:39.670Z,12.60
2017-12-14T21:32:39.456Z,18.20
2017-12-14T21:33:39.454Z,23.40
2017-12-14T21:34:39.442Z,26.00
2017-12-14T21:35:39.425Z,22.70
2017-12-14T21:36:39.413Z,21.40
2017-12-14T21:37:39.403Z,22.70
2017-12-14T21:38:39.401Z,25.00
2017-12-14T21:39:39.391Z,24.60
2017-12-14T21:40:39.379Z,20.00
2017-12-14T21:41:39.377Z,18.70
2017-12-14T21:42:39.367Z,21.00
2017-12-14T21:43:39.360Z,24.60
2017-12-14T21:44:39.352Z,18.80
2017-12-14T21:45:39.340Z,18.40
2017-12-14T21:46:39.354Z,18.70
2017-12-14T21:47:39.334Z,18.00
2017-12-14T21:48:39.318Z,17.00
2017-12-14T21:49:39.323Z,14.50
2017-12-14T21:50:39.307Z,19.10
2017-12-14T21:51:39.304Z,14.70
2017-12-14T21:52:39.300Z,17.10
2017-12-14T21:53:39.292Z,15.30
2017-12-14T21:54:39.284Z,16.30
2017-12-14T21:55:39.278Z,18.30
2017-12-14T21:56:39.275Z,16.40
2017-12-14T21:57:39.269Z,16.20
2017-12-14T21:58:39.265Z,19.40
2017-12-14T21:59:39.262Z,17.40
2017-12-14T22:00:39.250Z,19.50
2017-12-14T22:01:39.248Z,17.70
2017-12-14T22:02:39.249Z,19.10
2017-12-14T22:03:39.233Z,21.00
2017-12-14T22:04:39.229Z,45.50
2017-12-14T22:05:39.225Z,29.30
2017-12-14T22:06:39.220Z,31.60
2017-12-14T22:07:39.220Z,23.40
2017-12-14T22:08:39.220Z,21.60
2017-12-14T22:09:39.202Z,21.70
2017-12-14T22:10:39.203Z,18.70
2017-12-14T22:11:39.203Z,21.40
2017-12-14T22:12:39.192Z,21.80
2017-12-14T22:13:39.193Z,21.90
2017-12-14T22:14:39.180Z,22.80
2017-12-14T22:15:39.184Z,19.00
2017-12-14T22:16:39.176Z,22.10
2017-12-14T22:17:39.168Z,26.80
2017-12-14T22:18:39.163Z,31.20
2017-12-14T22:19:39.162Z,28.70
2017-12-14T22:20:39.161Z,25.40
2017-12-14T22:21:39.147Z,23.60
2017-12-14T22:22:39.144Z,22.60
2017-12-14T22:23:39.138Z,25.60
2017-12-14T22:24:39.133Z,21.80
2017-12-14T22:25:39.130Z,24.40
2017-12-14T22:26:39.127Z,30.50
2017-12-14T22:27:39.120Z,25.10
2017-12-14T22:28:39.115Z,29.00
2017-12-14T22:29:39.113Z,27.20
2017-12-14T22:30:39.106Z,28.20
2017-12-14T22:31:39.103Z,29.20
2017-12-14T22:32:39.099Z,27.70
2017-12-14T22:33:39.090Z,22.00
2017-12-14T22:34:39.090Z,31.70
2017-12-14T22:35:39.091Z,25.30
2017-12-14T22:36:39.083Z,23.00
2017-12-14T22:37:39.078Z,19.80
2017-12-14T22:38:39.080Z,27.00
2017-12-14T22:39:39.066Z,23.10
2017-12-14T22:40:39.061Z,24.80
2017-12-14T22:41:39.062Z,22.50
2017-12-14T22:42:39.060Z,24.40
2017-12-14T22:43:39.056Z,29.30
2017-12-14T22:44:39.049Z,33.80
2017-12-14T22:45:39.041Z,65.00
2017-12-14T22:46:39.042Z,28.70
2017-12-14T22:47:39.035Z,22.00
2017-12-14T22:48:39.102Z,21.60
2017-12-14T22:49:39.026Z,22.10
2017-12-14T22:50:39.033Z,20.50
2017-12-14T22:51:39.019Z,23.70
2017-12-14T22:52:39.026Z,19.90
2017-12-14T22:53:39.008Z,25.10
2017-12-14T22:54:39.006Z,22.30
2017-12-14T22:55:39.001Z,25.00
2017-12-14T22:56:38.995Z,34.90
2017-12-14T22:57:39.002Z,26.20
2017-12-14T22:58:38.995Z,33.10
2017-12-14T22:59:38.985Z,21.90
2017-12-14T23:00:38.980Z,25.10
2017-12-14T23:01:38.980Z,23.20
2017-12-14T23:02:38.979Z,28.00
2017-12-14T23:03:38.971Z,20.60
2017-12-14T23:04:38.964Z,20.80
2017-12-14T23:05:38.962Z,19.80
2017-12-14T23:06:38.954Z,21.60
2017-12-14T23:07:38.973Z,20.60
2017-12-14T23:08:38.950Z,22.20
2017-12-14T23:09:38.945Z,20.60
2017-12-14T23:10:38.943Z,22.00
2017-12-14T23:11:38.934Z,22.00
2017-12-14T23:12:38.932Z,20.20
2017-12-14T23:13:38.930Z,20.90
2017-12-14T23:14:38.929Z,21.00
2017-12-14T23:15:38.922Z,21.20
2017-12-14T23:16:38.924Z,20.90
2017-12-14T23:17:38.910Z,22.00
2017-12-14T23:18:38.934Z,18.70
2017-12-14T23:19:38.912Z,20.10
2017-12-14T23:20:38.901Z,20.20
2017-12-14T23:21:38.961Z,21.70
2017-12-14T23:22:38.898Z,20.60
2017-12-14T23:23:38.953Z,24.60
2017-12-14T23:24:38.895Z,22.00
2017-12-14T23:25:38.891Z,22.10
2017-12-14T23:26:38.877Z,26.80
2017-12-14T23:27:38.878Z,22.50
2017-12-14T23:28:38.874Z,21.70
2017-12-14T23:29:38.872Z,19.30
2017-12-14T23:30:38.872Z,20.20
2017-12-14T23:31:38.862Z,21.00
2017-12-14T23:32:38.863Z,18.30
2017-12-14T23:33:38.852Z,22.80
2017-12-14T23:34:38.851Z,21.60
2017-12-14T23:35:38.852Z,18.20
2017-12-14T23:36:38.842Z,16.30
2017-12-14T23:37:38.838Z,18.60
2017-12-14T23:38:38.847Z,23.70
2017-12-14T23:39:38.839Z,17.70
2017-12-14T23:40:38.826Z,19.50
2017-12-14T23:41:38.828Z,20.50
2017-12-14T23:42:38.819Z,18.50
2017-12-14T23:43:38.817Z,23.20
2017-12-14T23:44:38.819Z,23.60
2017-12-14T23:45:38.818Z,22.00
2017-12-14T23:46:38.809Z,26.00
2017-12-14T23:47:38.802Z,24.50
2017-12-14T23:48:38.801Z,19.80
2017-12-14T23:49:38.794Z,19.60
2017-12-14T23:50:38.790Z,25.20
2017-12-14T23:51:38.791Z,24.80
2017-12-14T23:52:38.784Z,21.80
2017-12-14T23:53:38.782Z,25.80
2017-12-14T23:54:38.853Z,22.20
2017-12-14T23:55:38.771Z,20.10
2017-12-14T23:56:38.775Z,20.00
2017-12-14T23:57:38.767Z,21.10
2017-12-14T23:58:38.767Z,23.00
2017-12-14T23:59:38.762Z,22.70
